• Join FlightAware (Why Join?)
  • Login
  • US Flag 
10:50PM EDT


 

Airport Tracker/Info


-or-


 

Live Flight TrackerFlight Track Log ✈ USC491 ✈ 04-Feb-2014 ✈ KADS - KHOU

Flight Track Log - Related Links

Times and Time Zones

All times are in EST time to prevent confusion due to time zone crossing. See the USC491 flight status page for this flight to view local times or setup timezone preferences in your user account.

Time Position Orientation Groundspeed Altitude Reporting Facility
EST Latitude Longitude Course Direction KTS MPH feet Rate Location/Type
07:13AM 32.9500 -96.8333 140° Southeast 93 107 1,600  Level Dallas / Fort Worth TRACON
07:13AM 32.9333 -96.8167 140° Southeast 96 110 1,900 900 Climbing Dallas / Fort Worth TRACON
07:14AM 32.9167 -96.8167 180° South 97 112 2,900 480 Climbing Dallas / Fort Worth TRACON
07:15AM 32.8833 -96.8333 203° Southwest 145 167 2,900  Level Dallas / Fort Worth TRACON
07:16AM 32.8500 -96.8667 220° Southwest 131 151 2,900  Level Dallas / Fort Worth TRACON
07:17AM 32.8000 -96.8833 196° South 132 152 2,900 180 Level Dallas / Fort Worth TRACON
07:18AM 32.7667 -96.8833 180° South 147 169 3,300 420 Climbing Dallas / Fort Worth TRACON
07:19AM 32.7333 -96.8667 157° South 122 140 3,800 300 Climbing Dallas / Fort Worth TRACON
07:20AM 32.7000 -96.8667 180° South 147 169 3,900  Climbing Dallas / Fort Worth TRACON
07:21AM 32.6667 -96.8500 157° South 150 173 3,900 180 Level Dallas / Fort Worth TRACON
07:22AM 32.6167 -96.8333 164° South 130 150 4,400 480 Climbing Dallas / Fort Worth TRACON
07:23AM 32.6028 -96.8369 192° South 128 147 4,700 240 Climbing Fort Worth Center
07:24AM 32.5664 -96.8353 178° South 131 151 4,800 60 Climbing Fort Worth Center
07:25AM 32.5236 -96.8328 177° South 142 163 4,900  Climbing Fort Worth Center
07:26AM 32.4828 -96.8289 175° South 146 168 4,800  Descending Fort Worth Center
07:27AM 32.4425 -96.8278 179° South 145 167 4,900  Climbing Fort Worth Center
07:28AM 32.4033 -96.8328 186° South 142 163 4,800  Descending Fort Worth Center
07:29AM 32.3647 -96.8425 192° South 141 162 4,900  Climbing Fort Worth Center
07:30AM 32.3247 -96.8425 180° South 146 168 4,800  Descending Fort Worth Center
07:31AM 32.2842 -96.8311 167° South 150 173 4,900  Climbing Fort Worth Center
07:32AM 32.2447 -96.8206 167° South 148 170 4,900  Level Fort Worth Center
07:33AM 32.2092 -96.8122 169° South 145 167 4,900 -60 Level Fort Worth Center
07:34AM 32.1697 -96.8044 171° South 143 165 4,800 -60 Descending Fort Worth Center
07:35AM 32.1317 -96.7939 167° South 142 163 4,800  Level Fort Worth Center
07:36AM 32.0933 -96.7833 167° South 141 162 4,900  Climbing Fort Worth Center
07:37AM 32.0564 -96.7753 170° South 137 158 4,900  Level Fort Worth Center
07:38AM 32.0211 -96.7636 164° South 133 153 4,900  Level Fort Worth Center
07:39AM 31.9789 -96.7528 168° South 129 148 4,900  Level Fort Worth Center
07:40AM 31.9456 -96.7436 167° South 128 147 4,900  Level Fort Worth Center
07:41AM 31.9108 -96.7344 167° South 127 146 4,900  Level Fort Worth Center
07:42AM 31.8767 -96.7256 168° South 125 144 4,900  Level Fort Worth Center
07:42AM 31.8556 -96.7247 178° South 120 138 4,900  Level Houston Center
07:44AM 31.8203 -96.7122 163° South 124 143 4,900  Level Houston Center
07:45AM 31.7864 -96.7006 164° South 125 144 4,900  Level Houston Center
07:46AM 31.7528 -96.6919 168° South 125 144 4,900 -60 Level Houston Center
07:47AM 31.7172 -96.6814 166° South 126 145 4,800  Descending Houston Center
07:48AM 31.6839 -96.6706 165° South 125 144 4,900  Climbing Houston Center
07:49AM 31.6486 -96.6597 165° South 127 146 4,800  Descending Houston Center
07:50AM 31.6150 -96.6508 167° South 126 145 4,900  Climbing Houston Center
07:51AM 31.5806 -96.6397 165° South 125 144 4,900  Level Houston Center
07:52AM 31.5456 -96.6289 165° South 127 146 4,900  Level Houston Center
07:53AM 31.5111 -96.6181 165° South 127 146 4,900  Level Houston Center
07:54AM 31.4767 -96.6097 168° South 126 145 4,900  Level Houston Center
07:55AM 31.4419 -96.6025 170° South 126 145 4,900  Level Houston Center
07:56AM 31.4069 -96.5950 170° South 126 145 4,900  Level Houston Center
07:57AM 31.3728 -96.5869 169° South 125 144 4,900  Level Houston Center
07:58AM 31.3378 -96.5800 170° South 125 144 4,900  Level Houston Center
07:59AM 31.3028 -96.5733 171° South 126 145 4,900  Level Houston Center
08:00AM 31.2678 -96.5664 170° South 125 144 4,900  Level Houston Center
08:01AM 31.2314 -96.5572 168° South 128 147 4,900  Level Houston Center
08:01AM 31.2161 -96.5547 172° South 130 150 4,900  Level Houston Center
08:02AM 31.1953 -96.5494 168° South 130 150 4,900  Level Houston Center
08:02AM 31.1819 -96.5461 168° South 127 146 4,900  Level Houston Center
08:03AM 31.1619 -96.5425 171° South 126 145 4,900  Level Houston Center
08:03AM 31.1481 -96.5403 172° South 124 143 4,900  Level Houston Center
08:04AM 31.1244 -96.5356 170° South 122 140 4,900  Level Houston Center
08:05AM 31.0839 -96.5278 171° South 123 142 4,900  Level Houston Center
08:06AM 31.0561 -96.5211 168° South 123 142 4,900  Level Houston Center
08:06AM 31.0603 -96.5214 357° North 122 140 4,900  Level Houston Center
08:07AM 31.0261 -96.5089 163° South 124 143 4,900  Level Houston Center
08:07AM 31.0194 -96.5081 174° South 125 144 4,900  Level Houston Center
08:08AM 30.9922 -96.5006 167° South 124 143 4,900  Level Houston Center
08:08AM 30.9833 -96.5000 177° South 124 143 4,900  Level Houston Center
08:09AM 30.9586 -96.4928 166° South 123 142 4,900  Level Houston Center
08:09AM 30.9511 -96.4914 171° South 124 143 4,900  Level Houston Center
08:10AM 30.9233 -96.4842 167° South 125 144 4,900  Level Houston Center
08:10AM 30.9147 -96.4831 174° South 124 143 4,900  Level Houston Center
08:11AM 30.8883 -96.4767 168° South 125 144 4,900  Level Houston Center
08:11AM 30.8764 -96.4753 174° South 125 144 4,900  Level Houston Center
08:12AM 30.8550 -96.4703 169° South 123 142 4,900  Level Houston Center
08:12AM 30.8419 -96.4669 168° South 125 144 4,900  Level Houston Center
08:13AM 30.8200 -96.4622 170° South 124 143 4,900  Level Houston Center
08:13AM 30.8058 -96.4586 168° South 122 140 4,900  Level Houston Center
08:14AM 30.7869 -96.4547 170° South 123 142 4,900  Level Houston Center
08:14AM 30.7781 -96.4544 178° South 119 137 4,900  Level Houston Center
08:15AM 30.7553 -96.4528 176° South 118 136 4,900  Level Houston Center
08:15AM 30.7442 -96.4508 171° South 115 132 4,900  Level Houston Center
08:16AM 30.7169 -96.4492 177° South 115 132 4,900  Level Houston Center
08:17AM 30.6839 -96.4422 170° South 119 137 4,900  Level Houston Center
08:17AM 30.6806 -96.4408 160° South 120 138 4,900  Level Houston Center
08:18AM 30.6511 -96.4336 168° South 120 138 4,900  Level Houston Center
08:18AM 30.6483 -96.4322 157° South 122 140 4,900  Level Houston Center
08:19AM 30.6175 -96.4239 167° South 122 140 4,900  Level Houston Center
08:19AM 30.6161 -96.4239 180° South 121 139 4,900  Level Houston Center
08:20AM 30.5847 -96.4136 164° South 121 139 4,900  Level Houston Center
08:20AM 30.5817 -96.4131 171° South 121 139 4,900  Level Houston Center
08:21AM 30.5519 -96.3997 159° South 123 142 4,900  Level Houston Center
08:21AM 30.5514 -96.3994 157° South 124 143 4,900  Level Houston Center
08:22AM 30.5197 -96.3869 161° South 122 140 4,900  Level Houston Center
08:22AM 30.5144 -96.3867 177° South 121 139 4,900  Level Houston Center
08:23AM 30.4875 -96.3753 160° South 120 138 4,900  Level Houston Center
08:23AM 30.4819 -96.3733 163° South 121 139 4,900  Level Houston Center
08:24AM 30.4556 -96.3592 155° Southeast 122 140 4,900  Level Houston Center
08:24AM 30.4469 -96.3553 159° South 119 137 4,900 60 Level Houston Center
08:25AM 30.4186 -96.3439 161° South 121 139 5,000  Climbing Houston Center
08:26AM 30.3925 -96.3311 157° South 120 138 5,000  Level Houston Center
08:26AM 30.3858 -96.3283 160° South 122 140 5,000 -120 Level Houston Center
08:27AM 30.3594 -96.3142 155° Southeast 120 138 4,900 -120 Descending Houston Center
08:27AM 30.3611 -96.3147 344° North 123 142 4,900  Level Houston Center
08:28AM 30.3286 -96.2958 153° Southeast 119 137 4,900  Level Houston Center
08:28AM 30.3328 -96.2975 341° North 116 133 4,900 60 Level Houston Center
08:29AM 30.2983 -96.2847 162° South 115 132 5,000 60 Climbing Houston Center
08:29AM 30.3011 -96.2842 10° North 119 137 5,000 -120 Level Houston Center
08:30AM 30.2700 -96.2714 160° South 119 137 4,900  Descending Houston Center
08:30AM 30.2636 -96.2694 165° South 122 140 5,000 60 Climbing Houston Center
08:31AM 30.2386 -96.2567 156° South 120 138 5,000  Level Houston Center
08:31AM 30.2308 -96.2536 161° South 121 139 5,000 -120 Level Houston Center
08:32AM 30.2025 -96.2422 161° South 120 138 4,900 -120 Descending Houston Center
08:32AM 30.2069 -96.2447 334° Northwest 119 137 4,900 60 Level Houston Center
08:33AM 30.1747 -96.2319 161° South 120 138 5,000  Climbing Houston Center
08:34AM 30.1367 -96.2192 164° South 121 139 4,900  Descending Houston Center
08:34AM 30.1353 -96.2183 153° Southeast 121 139 5,000 60 Climbing Houston Center
08:35AM 30.1064 -96.2092 165° South 119 137 5,000  Level Houston Center
08:35AM 30.1031 -96.2075 157° South 119 137 5,000 -120 Level Houston Center
08:36AM 30.0744 -96.1978 164° South 119 137 4,900 -120 Descending Houston Center
08:36AM 30.0686 -96.1969 173° South 123 142 4,900  Level Houston Center
08:37AM 30.0428 -96.1817 153° Southeast 125 144 4,900  Level Houston Center
08:38AM 30.0108 -96.1636 154° Southeast 127 146 5,000  Climbing Houston Center
08:40AM 29.9783 -96.1478 157° South 126 145 4,900  Descending Houston Center
08:40AM 29.9694 -96.1431 155° Southeast 126 145 5,000  Climbing Houston Center
08:41AM 29.9422 -96.1197 143° Southeast 140 161 4,900 -120 Descending Houston Center
08:41AM 29.9431 -96.1200 344° North 135 155 4,900 -420 Level Houston Center
08:42AM 29.9169 -96.0842 130° Southeast 146 168 4,500 -480 Descending Houston Center
08:42AM 29.9119 -96.0822 161° South 150 173 4,400 -480 Descending Houston Center
08:43AM 29.8817 -96.0469 135° Southeast 150 173 4,000 -240 Descending Houston Center
08:44AM 29.8561 -96.0208 138° Southeast 143 165 4,000  Level Houston Center
08:45AM 29.8261 -95.9883 137° Southeast 140 161 4,000  Level Houston Center
08:45AM 29.8258 -95.9864 99° East 140 161 4,000  Level Houston Center
08:46AM 29.7983 -95.9578 138° Southeast 143 165 4,000  Level Houston Center
08:46AM 29.7978 -95.9558 108° East 140 161 4,000  Level Houston Center
08:47AM 29.7686 -95.9231 136° Southeast 143 165 4,000  Level Houston Center
08:48AM 29.7381 -95.8925 139° Southeast 145 167 4,000  Level Houston Center
08:48AM 29.7392 -95.8919 23° Northeast 144 166 4,000  Level Houston Center
08:49AM 29.7106 -95.8669 143° Southeast 141 162 4,000  Level Houston Center
08:49AM 29.7094 -95.8633 110° East 141 162 4,000  Level Houston Center
08:50AM 29.6806 -95.8367 141° Southeast 147 169 4,000 -120 Level Houston Center
08:50AM 29.6781 -95.8331 129° Southeast 145 167 3,900 -360 Descending Houston Center
08:51AM 29.6469 -95.8031 140° Southeast 146 168 3,600 -480 Descending Houston Center
08:52AM 29.6108 -95.7536 130° Southeast 163 188 3,000 -300 Descending Houston Center
08:53AM 29.5869 -95.7092 122° Southeast 165 190 3,000  Level Houston Center
08:54AM 29.5678 -95.6661 117° Southeast 156 180 3,000  Level Houston Center
08:55AM 29.5486 -95.6261 119° Southeast 155 178 3,000  Level Houston Center
08:55AM 29.5481 -95.6219 99° East 155 178 3,000  Level Houston Center
08:56AM 29.5275 -95.5806 120° Southeast 158 182 3,000  Level Houston Center
08:56AM 29.5272 -95.5778 97° East 157 181 3,000  Level Houston Center
08:57AM 29.5131 -95.5367 112° Southeast 163 188 3,000  Level Houston Center
08:57AM 29.5122 -95.5306 99° East 158 182 3,000 -540 Level Houston Center
08:58AM 29.4983 -95.4881 111° Southeast 161 185 2,500 -420 Descending Houston Center
08:58AM 29.4972 -95.4761 96° East 161 185 2,600 -540 Climbing Houston Center
08:59AM 29.5125 -95.4361 66° East 174 200 2,000 -600 Descending Houston Center
08:59AM 29.5197 -95.4233 57° Northeast 175 201 2,000  Level Houston Center
09:00AM 29.5511 -95.3836 48° Northeast 170 196 2,000 -60 Level Houston Center
09:01AM 29.5764 -95.3564 43° Northeast 166 191 1,900 -240 Descending Houston Center
09:01AM 29.5836 -95.3464 50° Northeast 168 193 1,800 -840 Descending Houston Center
09:02AM 29.6031 -95.3242 45° Northeast 131 151 1,100 -900 Descending Houston Center
09:02AM 29.6100 -95.3161 45° Northeast 151 174 900 -720 Descending Houston Center
09:03AM 29.6256 -95.2975 46° Northeast 110 127 400 -600 Descending Houston Center
09:03AM 29.6317 -95.2919 38° Northeast 127 146 300 -360 Descending Houston Center